createdAt,value
2018-02-20T00:01:45.479Z,-0.10
2018-02-20T00:04:13.111Z,-0.11
2018-02-20T00:06:40.845Z,-0.12
2018-02-20T00:09:08.818Z,-0.11
2018-02-20T00:11:36.454Z,-0.11
2018-02-20T00:14:04.202Z,-0.10
2018-02-20T00:16:31.796Z,-0.12
2018-02-20T00:18:59.435Z,-0.12
2018-02-20T00:21:27.108Z,-0.14
2018-02-20T00:23:54.759Z,-0.15
2018-02-20T00:26:22.372Z,-0.17
2018-02-20T00:28:49.994Z,-0.18
2018-02-20T00:31:17.620Z,-0.20
2018-02-20T00:33:45.255Z,-0.21
2018-02-20T00:36:12.847Z,-0.22
2018-02-20T00:38:40.466Z,-0.22
2018-02-20T00:41:08.130Z,-0.21
2018-02-20T00:43:35.758Z,-0.20
2018-02-20T00:46:03.613Z,-0.19
2018-02-20T00:48:31.277Z,-0.19
2018-02-20T00:50:58.881Z,-0.21
2018-02-20T00:53:26.509Z,-0.22
2018-02-20T00:55:54.160Z,-0.26
2018-02-20T00:58:21.866Z,-0.28
2018-02-20T01:00:49.463Z,-0.30
2018-02-20T01:03:17.063Z,-0.32
2018-02-20T01:05:44.706Z,-0.34
2018-02-20T01:08:12.322Z,-0.38
2018-02-20T01:10:40.004Z,-0.39
2018-02-20T01:13:07.622Z,-0.39
2018-02-20T01:15:35.251Z,-0.39
2018-02-20T01:18:02.927Z,-0.39
2018-02-20T01:20:30.566Z,-0.41
2018-02-20T01:22:58.197Z,-0.42
2018-02-20T01:25:25.867Z,-0.45
2018-02-20T01:27:53.813Z,-0.47
2018-02-20T01:30:21.416Z,-0.49
2018-02-20T01:32:49.089Z,-0.50
2018-02-20T01:35:17.007Z,-0.51
2018-02-20T01:37:44.651Z,-0.52
2018-02-20T01:40:12.336Z,-0.54
2018-02-20T01:42:40.298Z,-0.56
2018-02-20T01:45:07.889Z,-0.58
2018-02-20T01:47:35.607Z,-0.60
2018-02-20T01:50:03.203Z,-0.60
2018-02-20T01:52:30.868Z,-0.60
2018-02-20T01:54:58.490Z,-0.61
2018-02-20T01:57:26.119Z,-0.61
2018-02-20T01:59:53.785Z,-0.61
2018-02-20T02:02:21.385Z,-0.62
2018-02-20T02:04:49.057Z,-0.63
2018-02-20T02:07:16.915Z,-0.66
2018-02-20T02:09:44.540Z,-0.69
2018-02-20T02:12:12.177Z,-0.72
2018-02-20T02:14:40.119Z,-0.74
2018-02-20T02:17:07.795Z,-0.74
2018-02-20T02:19:35.750Z,-0.75
2018-02-20T02:22:03.449Z,-0.76
2018-02-20T02:24:31.064Z,-0.75
2018-02-20T02:26:58.700Z,-0.76
2018-02-20T02:29:26.698Z,-0.76
2018-02-20T02:31:54.344Z,-0.73
2018-02-20T02:34:21.966Z,-0.70
2018-02-20T02:36:49.565Z,-0.68
2018-02-20T02:39:17.218Z,-0.68
2018-02-20T02:41:44.864Z,-0.68
2018-02-20T02:44:12.564Z,-0.65
2018-02-20T02:46:40.191Z,-0.58
2018-02-20T02:49:07.872Z,-0.57
2018-02-20T02:51:35.725Z,-0.56
2018-02-20T02:54:03.446Z,-0.53
2018-02-20T02:56:31.101Z,-0.52
2018-02-20T02:58:58.783Z,-0.52
2018-02-20T03:01:26.421Z,-0.53
2018-02-20T03:03:54.108Z,-0.51
2018-02-20T03:06:21.695Z,-0.47
2018-02-20T03:08:49.724Z,-0.47
2018-02-20T03:11:17.378Z,-0.45
2018-02-20T03:13:45.049Z,-0.45
2018-02-20T03:16:12.677Z,-0.43
2018-02-20T03:18:40.379Z,-0.43
2018-02-20T03:21:08.094Z,-0.43
2018-02-20T03:23:35.740Z,-0.44
2018-02-20T03:26:03.436Z,-0.45
2018-02-20T03:28:31.090Z,-0.45
2018-02-20T03:30:58.693Z,-0.47
2018-02-20T03:33:26.362Z,-0.48
2018-02-20T03:35:54.040Z,-0.49
2018-02-20T03:38:22.005Z,-0.49
2018-02-20T03:40:49.679Z,-0.48
2018-02-20T03:43:17.493Z,-0.49
2018-02-20T03:45:45.196Z,-0.48
2018-02-20T03:48:12.868Z,-0.46
2018-02-20T03:50:40.513Z,-0.43
2018-02-20T03:53:08.342Z,-0.43
2018-02-20T03:58:49.609Z,-0.43
2018-02-20T04:01:17.301Z,-0.45
2018-02-20T04:03:44.942Z,-0.48
2018-02-20T04:06:12.565Z,-0.50
2018-02-20T04:08:40.624Z,-0.54
2018-02-20T04:11:08.345Z,-0.56
2018-02-20T04:13:36.055Z,-0.56
2018-02-20T04:16:04.017Z,-0.57
2018-02-20T04:18:31.700Z,-0.57
2018-02-20T04:20:59.328Z,-0.59
2018-02-20T04:23:27.156Z,-0.61
2018-02-20T04:25:54.780Z,-0.61
2018-02-20T04:28:22.445Z,-0.61
2018-02-20T04:30:50.263Z,-0.60
2018-02-20T04:33:17.945Z,-0.61
2018-02-20T04:35:45.843Z,-0.62
2018-02-20T04:38:13.508Z,-0.63
2018-02-20T04:40:41.123Z,-0.65
2018-02-20T04:43:08.838Z,-0.66
2018-02-20T04:45:36.741Z,-0.67
2018-02-20T04:48:04.402Z,-0.69
2018-02-20T04:50:32.221Z,-0.71
2018-02-20T04:52:59.944Z,-0.73
2018-02-20T04:55:28.113Z,-0.74
2018-02-20T04:57:55.747Z,-0.76
2018-02-20T05:00:23.377Z,-0.79
2018-02-20T05:02:51.061Z,-0.81
2018-02-20T05:05:18.687Z,-0.83
2018-02-20T05:07:46.292Z,-0.86
2018-02-20T05:10:13.946Z,-0.88
2018-02-20T05:12:41.567Z,-0.89
2018-02-20T05:15:09.617Z,-0.91
2018-02-20T05:17:37.588Z,-0.95
2018-02-20T05:20:05.736Z,-0.97
2018-02-20T05:22:34.058Z,-1.00
2018-02-20T05:25:02.199Z,-1.03
2018-02-20T05:27:29.888Z,-1.04
2018-02-20T05:29:57.523Z,-1.06
2018-02-20T05:32:25.185Z,-1.08
2018-02-20T05:34:58.469Z,-1.09
2018-02-20T05:37:26.139Z,-1.11
2018-02-20T05:39:54.169Z,-1.11
2018-02-20T05:42:22.027Z,-1.11
2018-02-20T05:44:49.767Z,-1.11
2018-02-20T05:47:17.647Z,-1.11
2018-02-20T05:49:45.632Z,-1.10
2018-02-20T05:52:13.266Z,-1.09
2018-02-20T05:54:40.983Z,-1.10
2018-02-20T05:57:08.632Z,-1.12
2018-02-20T05:59:36.573Z,-1.12
2018-02-20T06:02:04.190Z,-1.14
2018-02-20T06:04:31.832Z,-1.14
2018-02-20T06:06:59.472Z,-1.16
2018-02-20T06:09:27.135Z,-1.17
2018-02-20T06:11:54.806Z,-1.17
2018-02-20T06:14:22.427Z,-1.19
2018-02-20T06:16:50.048Z,-1.19
2018-02-20T06:19:17.636Z,-1.20
2018-02-20T06:21:45.314Z,-1.21
2018-02-20T06:24:12.919Z,-1.25
2018-02-20T06:26:40.559Z,-1.28
2018-02-20T06:29:08.172Z,-1.29
2018-02-20T06:31:35.782Z,-1.30
2018-02-20T06:34:03.416Z,-1.32
2018-02-20T06:36:31.044Z,-1.32
2018-02-20T06:38:58.707Z,-1.32
2018-02-20T06:41:26.341Z,-1.30
2018-02-20T06:43:53.965Z,-1.29
2018-02-20T06:46:21.675Z,-1.30
2018-02-20T06:48:49.472Z,-1.31
2018-02-20T06:51:17.110Z,-1.32
2018-02-20T06:53:44.768Z,-1.34
2018-02-20T06:56:12.411Z,-1.38
2018-02-20T06:58:40.321Z,-1.41
2018-02-20T07:01:08.074Z,-1.44
2018-02-20T07:03:35.748Z,-1.46
2018-02-20T07:06:03.395Z,-1.47
2018-02-20T07:08:31.086Z,-1.48
2018-02-20T07:10:58.715Z,-1.48
2018-02-20T07:13:26.326Z,-1.47
2018-02-20T07:15:53.974Z,-1.43
2018-02-20T07:18:21.677Z,-1.38
2018-02-20T07:20:49.382Z,-1.31
2018-02-20T07:23:17.007Z,-1.25
2018-02-20T07:26:08.606Z,-1.21
2018-02-20T07:28:36.246Z,-1.17
2018-02-20T07:31:03.915Z,-1.12
2018-02-20T07:33:31.549Z,-1.07
2018-02-20T07:35:59.161Z,-1.02
2018-02-20T07:38:26.816Z,-0.97
2018-02-20T07:40:54.564Z,-0.93
2018-02-20T07:43:22.246Z,-0.86
2018-02-20T07:45:49.931Z,-0.77
2018-02-20T07:48:17.878Z,-0.69
2018-02-20T07:50:45.491Z,-0.60
2018-02-20T07:53:13.202Z,-0.51
2018-02-20T07:55:40.874Z,-0.40
2018-02-20T07:58:08.612Z,-0.32
2018-02-20T08:00:36.625Z,-0.22
2018-02-20T08:03:04.295Z,-0.13
2018-02-20T08:05:32.033Z,-0.05
2018-02-20T08:07:59.728Z,0.03
2018-02-20T08:10:27.390Z,0.13
2018-02-20T08:12:55.117Z,0.21
2018-02-20T08:15:22.905Z,0.28
2018-02-20T08:17:50.594Z,0.35
2018-02-20T08:20:18.301Z,0.43
2018-02-20T08:22:57.898Z,0.50
2018-02-20T08:25:25.632Z,0.61
2018-02-20T08:27:53.277Z,0.72
2018-02-20T08:30:20.962Z,0.78
2018-02-20T08:32:49.037Z,0.88
2018-02-20T08:35:16.703Z,0.98
2018-02-20T08:37:44.454Z,1.04
2018-02-20T08:40:12.129Z,1.09
2018-02-20T08:42:39.816Z,1.15
2018-02-20T08:45:07.471Z,1.23
2018-02-20T08:47:35.139Z,1.25
2018-02-20T08:50:02.876Z,1.31
2018-02-20T08:52:30.524Z,1.37
2018-02-20T08:54:58.186Z,1.41
2018-02-20T08:57:25.877Z,1.48
2018-02-20T08:59:53.570Z,1.52
2018-02-20T09:02:22.113Z,1.57
2018-02-20T09:04:49.804Z,1.60
2018-02-20T09:07:17.742Z,1.64
2018-02-20T09:09:45.381Z,1.69
2018-02-20T09:12:13.051Z,1.73
2018-02-20T09:14:40.695Z,1.79
2018-02-20T09:17:08.336Z,1.83
2018-02-20T09:19:36.002Z,1.86
2018-02-20T09:22:03.631Z,1.91
2018-02-20T09:24:31.266Z,1.96
2018-02-20T09:26:59.234Z,2.00
2018-02-20T09:29:26.874Z,2.06
2018-02-20T09:31:54.495Z,2.14
2018-02-20T09:34:22.535Z,2.22
2018-02-20T09:36:50.495Z,2.31
2018-02-20T09:39:18.154Z,2.37
2018-02-20T09:41:45.889Z,2.44
2018-02-20T09:44:13.509Z,2.51
2018-02-20T09:46:41.585Z,2.56
2018-02-20T09:49:09.240Z,2.64
2018-02-20T09:51:36.836Z,2.72
2018-02-20T09:54:04.572Z,2.81
2018-02-20T09:56:32.188Z,2.89
2018-02-20T09:58:59.839Z,2.94
2018-02-20T10:01:27.495Z,2.99
2018-02-20T10:03:55.185Z,3.09
2018-02-20T10:06:23.141Z,3.17
2018-02-20T10:08:50.852Z,3.25
2018-02-20T10:11:18.524Z,3.33
2018-02-20T10:13:46.461Z,3.41
2018-02-20T10:16:14.531Z,3.48
2018-02-20T10:18:42.217Z,3.56
2018-02-20T10:21:09.924Z,3.63
2018-02-20T10:23:37.576Z,3.73
2018-02-20T10:26:05.276Z,3.83
2018-02-20T10:28:32.928Z,3.90
2018-02-20T10:31:00.616Z,3.96
2018-02-20T10:33:28.294Z,4.01
2018-02-20T10:35:56.004Z,4.05
2018-02-20T10:38:23.627Z,4.12
2018-02-20T10:40:51.291Z,4.22
2018-02-20T10:43:18.963Z,4.32
2018-02-20T10:45:46.657Z,4.46
2018-02-20T10:48:14.577Z,4.54
2018-02-20T10:50:42.247Z,4.64
2018-02-20T10:53:09.868Z,4.82
2018-02-20T10:55:37.578Z,4.91
2018-02-20T10:58:05.617Z,4.97
2018-02-20T11:00:33.278Z,5.09
2018-02-20T11:03:01.033Z,5.21
2018-02-20T11:05:29.438Z,5.24
2018-02-20T11:07:57.084Z,5.29
2018-02-20T11:10:24.820Z,5.34
2018-02-20T11:12:52.527Z,5.38
2018-02-20T11:15:20.152Z,5.35
2018-02-20T11:17:48.087Z,5.39
2018-02-20T11:20:15.757Z,5.42
2018-02-20T11:22:43.665Z,5.45
2018-02-20T11:25:11.379Z,5.51
2018-02-20T11:27:39.058Z,5.55
2018-02-20T11:30:06.752Z,5.58
2018-02-20T11:32:34.424Z,5.59
2018-02-20T11:35:03.290Z,5.60
2018-02-20T11:37:30.915Z,5.57
2018-02-20T11:39:58.823Z,5.59
2018-02-20T11:42:26.803Z,5.54
2018-02-20T11:44:54.393Z,5.58
2018-02-20T11:47:22.086Z,5.55
2018-02-20T11:49:50.110Z,5.56
2018-02-20T11:52:17.759Z,5.59
2018-02-20T11:54:45.475Z,5.63
2018-02-20T11:57:13.117Z,5.69
2018-02-20T11:59:40.865Z,5.68
2018-02-20T12:02:08.617Z,5.69
2018-02-20T12:04:36.312Z,5.69
2018-02-20T12:07:04.035Z,5.69
2018-02-20T12:09:31.743Z,5.71
2018-02-20T12:11:59.455Z,5.75
2018-02-20T12:14:27.186Z,5.81
2018-02-20T12:16:54.891Z,5.71
2018-02-20T12:19:22.586Z,5.65
2018-02-20T12:21:50.253Z,5.63
2018-02-20T12:24:17.926Z,5.61
2018-02-20T12:26:45.619Z,5.67
2018-02-20T12:29:13.333Z,5.71
2018-02-20T12:31:41.392Z,5.71
2018-02-20T12:34:09.058Z,5.75
2018-02-20T12:36:37.117Z,5.77
2018-02-20T12:39:04.881Z,5.77
2018-02-20T12:41:32.537Z,5.69
2018-02-20T12:44:00.261Z,5.73
2018-02-20T12:46:27.916Z,5.75
2018-02-20T12:48:55.945Z,5.78
2018-02-20T12:51:23.667Z,5.81
2018-02-20T12:53:52.499Z,5.87
2018-02-20T12:56:20.207Z,5.93
2018-02-20T12:58:47.938Z,5.93
2018-02-20T13:01:15.580Z,5.88
2018-02-20T13:03:43.257Z,5.89
2018-02-20T13:06:10.893Z,5.86
2018-02-20T13:08:38.542Z,5.87
2018-02-20T13:11:06.641Z,5.80
2018-02-20T13:13:34.311Z,5.79
2018-02-20T13:16:02.288Z,5.78
2018-02-20T13:18:30.035Z,5.80
2018-02-20T13:20:57.713Z,5.83
2018-02-20T13:23:25.771Z,5.85
2018-02-20T13:25:53.440Z,5.82
2018-02-20T13:28:21.115Z,5.77
2018-02-20T13:30:48.766Z,5.77
2018-02-20T13:33:16.461Z,5.76
2018-02-20T13:35:44.289Z,5.75
2018-02-20T13:38:11.959Z,5.76
2018-02-20T13:40:39.665Z,5.80
2018-02-20T13:43:07.395Z,5.80
2018-02-20T13:45:35.057Z,5.82
2018-02-20T13:48:02.817Z,5.82
2018-02-20T13:50:30.899Z,5.85
2018-02-20T13:52:58.653Z,5.88
2018-02-20T13:55:26.350Z,5.94
2018-02-20T13:57:54.390Z,6.01
2018-02-20T14:00:22.178Z,6.08
2018-02-20T14:02:49.821Z,6.20
2018-02-20T14:05:17.591Z,6.24
2018-02-20T14:07:45.270Z,6.29
2018-02-20T14:10:13.021Z,6.30
2018-02-20T14:12:40.743Z,6.38
2018-02-20T14:15:08.393Z,6.48
2018-02-20T14:17:36.035Z,6.57
2018-02-20T14:20:03.770Z,6.60
2018-02-20T14:22:31.480Z,6.67
2018-02-20T14:24:59.306Z,6.73
2018-02-20T14:27:27.060Z,6.83
2018-02-20T14:29:54.787Z,6.94
2018-02-20T14:32:22.492Z,7.06
2018-02-20T14:34:50.271Z,7.22
2018-02-20T14:37:18.249Z,7.35
2018-02-20T14:39:45.925Z,7.51
2018-02-20T14:42:13.759Z,7.55
2018-02-20T14:44:41.432Z,7.51
2018-02-20T14:47:09.096Z,7.44
2018-02-20T14:49:37.844Z,7.38
2018-02-20T14:52:05.568Z,7.34
2018-02-20T14:54:33.334Z,7.26
2018-02-20T14:57:01.159Z,7.22
2018-02-20T14:59:28.850Z,7.21
2018-02-20T15:01:56.889Z,7.16
2018-02-20T15:04:24.637Z,7.10
2018-02-20T15:06:52.727Z,7.10
2018-02-20T15:09:20.686Z,6.97
2018-02-20T15:11:48.769Z,6.87
2018-02-20T15:14:16.456Z,6.84
2018-02-20T15:16:44.185Z,6.76
2018-02-20T15:19:11.878Z,6.65
2018-02-20T15:21:39.757Z,6.57
2018-02-20T15:24:07.439Z,6.53
2018-02-20T15:26:35.441Z,6.51
2018-02-20T15:29:03.123Z,6.45
2018-02-20T15:31:30.870Z,6.43
2018-02-20T15:33:58.496Z,6.40
2018-02-20T15:36:26.330Z,6.38
2018-02-20T15:38:54.032Z,6.36
2018-02-20T15:41:21.807Z,6.33
2018-02-20T15:43:49.543Z,6.28
2018-02-20T15:46:17.264Z,6.20
2018-02-20T15:48:44.997Z,6.16
2018-02-20T15:51:12.719Z,6.15
2018-02-20T15:53:40.417Z,6.05
2018-02-20T15:56:08.075Z,6.04
2018-02-20T15:58:35.728Z,6.02
2018-02-20T16:01:03.415Z,5.95
2018-02-20T16:03:31.161Z,5.94
2018-02-20T16:05:58.869Z,5.83
2018-02-20T16:08:26.721Z,5.78
2018-02-20T16:10:54.397Z,5.74
2018-02-20T16:13:22.026Z,5.73
2018-02-20T16:15:54.012Z,5.65
2018-02-20T16:18:21.666Z,5.57
2018-02-20T16:20:49.295Z,5.49
2018-02-20T16:23:17.321Z,5.47
2018-02-20T16:25:44.980Z,5.43
2018-02-20T16:28:12.628Z,5.42
2018-02-20T16:30:40.337Z,5.39
2018-02-20T16:33:07.973Z,5.34
2018-02-20T16:35:35.647Z,5.33
2018-02-20T16:38:03.320Z,5.27
2018-02-20T16:40:30.952Z,5.25
2018-02-20T16:42:58.556Z,5.21
2018-02-20T16:45:26.231Z,5.18
2018-02-20T16:47:54.130Z,5.10
2018-02-20T16:50:21.770Z,5.06
2018-02-20T16:52:49.461Z,5.02
2018-02-20T16:55:17.120Z,4.99
2018-02-20T16:57:44.772Z,4.94
2018-02-20T17:00:12.859Z,4.89
2018-02-20T17:02:40.501Z,4.82
2018-02-20T17:05:08.169Z,4.75
2018-02-20T17:07:35.786Z,4.69
2018-02-20T17:10:03.454Z,4.60
2018-02-20T17:12:31.136Z,4.53
2018-02-20T17:14:59.140Z,4.49
2018-02-20T17:17:27.006Z,4.41
2018-02-20T17:19:54.684Z,4.34
2018-02-20T17:22:22.332Z,4.27
2018-02-20T17:24:50.110Z,4.24
2018-02-20T17:27:17.727Z,4.22
2018-02-20T17:29:45.637Z,4.21
2018-02-20T17:32:13.348Z,4.20
2018-02-20T17:34:41.102Z,4.16
2018-02-20T17:37:08.791Z,4.13
2018-02-20T17:39:36.668Z,4.08
2018-02-20T17:42:04.399Z,4.03
2018-02-20T17:44:32.065Z,3.99
2018-02-20T17:46:59.776Z,3.95
2018-02-20T17:49:27.449Z,3.89
2018-02-20T17:51:55.136Z,3.84
2018-02-20T17:54:22.786Z,3.79
2018-02-20T17:56:50.483Z,3.75
2018-02-20T17:59:18.160Z,3.72
2018-02-20T18:01:45.896Z,3.69
2018-02-20T18:04:13.608Z,3.66
2018-02-20T18:06:41.399Z,3.60
2018-02-20T18:09:09.121Z,3.56
2018-02-20T18:11:36.780Z,3.53
2018-02-20T18:14:04.607Z,3.50
2018-02-20T18:16:32.268Z,3.48
2018-02-20T18:18:59.973Z,3.45
2018-02-20T18:21:28.535Z,3.43
2018-02-20T18:23:56.211Z,3.40
2018-02-20T18:26:23.846Z,3.34
2018-02-20T18:28:51.566Z,3.29
2018-02-20T18:31:20.212Z,3.24
2018-02-20T18:33:47.865Z,3.19
2018-02-20T18:36:15.790Z,3.14
2018-02-20T18:38:43.512Z,3.12
2018-02-20T18:41:11.278Z,3.09
2018-02-20T18:43:38.960Z,3.06
2018-02-20T18:46:06.729Z,3.02
2018-02-20T18:48:34.375Z,2.97
2018-02-20T18:51:02.086Z,2.92
2018-02-20T18:53:29.786Z,2.89
2018-02-20T18:55:57.460Z,2.86
2018-02-20T18:58:25.089Z,2.83
2018-02-20T19:00:52.722Z,2.78
2018-02-20T19:03:20.371Z,2.75
2018-02-20T19:05:50.038Z,2.69
2018-02-20T19:08:18.218Z,2.64
2018-02-20T19:10:45.890Z,2.61
2018-02-20T19:13:13.611Z,2.56
2018-02-20T19:15:41.276Z,2.52
2018-02-20T19:18:08.916Z,2.49
2018-02-20T19:20:36.519Z,2.46
2018-02-20T19:23:04.157Z,2.41
2018-02-20T19:25:31.862Z,2.37
2018-02-20T19:27:59.888Z,2.31
2018-02-20T19:30:27.515Z,2.27
2018-02-20T19:32:55.203Z,2.22
2018-02-20T19:35:22.851Z,2.20
2018-02-20T19:37:50.487Z,2.15
2018-02-20T19:40:18.212Z,2.15
2018-02-20T19:42:45.875Z,2.11
2018-02-20T19:45:13.559Z,2.09
2018-02-20T19:47:41.269Z,2.10
2018-02-20T19:50:08.922Z,2.06
2018-02-20T19:52:36.570Z,2.10
2018-02-20T19:55:04.583Z,2.07
2018-02-20T19:57:32.215Z,1.99
2018-02-20T19:59:59.882Z,1.97
2018-02-20T20:02:27.513Z,1.94
2018-02-20T20:04:55.214Z,1.93
2018-02-20T20:07:22.858Z,1.90
2018-02-20T20:09:50.571Z,1.87
2018-02-20T20:12:18.445Z,1.84
2018-02-20T20:14:46.085Z,1.79
2018-02-20T20:17:13.920Z,1.75
2018-02-20T20:19:41.567Z,1.73
2018-02-20T20:22:09.194Z,1.71
2018-02-20T20:24:37.122Z,1.69
2018-02-20T20:27:04.813Z,1.66
2018-02-20T20:29:32.483Z,1.65
2018-02-20T20:32:00.143Z,1.65
2018-02-20T20:34:27.866Z,1.63
2018-02-20T20:36:55.757Z,1.58
2018-02-20T20:39:23.402Z,1.54
2018-02-20T20:41:51.092Z,1.47
2018-02-20T20:44:19.901Z,1.49
2018-02-20T20:46:48.552Z,1.45
2018-02-20T20:49:16.162Z,1.42
2018-02-20T20:51:43.832Z,1.38
2018-02-20T20:54:13.502Z,1.35
2018-02-20T20:56:41.184Z,1.34
2018-02-20T20:59:08.909Z,1.32
2018-02-20T21:01:36.584Z,1.31
2018-02-20T21:04:04.320Z,1.30
2018-02-20T21:06:31.990Z,1.29
2018-02-20T21:09:00.004Z,1.29
2018-02-20T21:11:27.689Z,1.29
2018-02-20T21:13:55.601Z,1.28
2018-02-20T21:16:23.272Z,1.28
2018-02-20T21:18:51.015Z,1.24
2018-02-20T21:21:18.827Z,1.20
2018-02-20T21:23:46.596Z,1.21
2018-02-20T21:26:14.289Z,1.20
2018-02-20T21:28:42.038Z,1.19
2018-02-20T21:31:09.775Z,1.16
2018-02-20T21:33:37.490Z,1.15
2018-02-20T21:36:05.225Z,1.12
2018-02-20T21:38:32.937Z,1.09
2018-02-20T21:41:00.782Z,1.09
2018-02-20T21:43:28.415Z,1.14
2018-02-20T21:45:56.055Z,1.13
2018-02-20T21:48:23.796Z,1.11
2018-02-20T21:50:51.462Z,1.09
2018-02-20T21:53:19.534Z,1.06
2018-02-20T21:55:47.314Z,1.03
2018-02-20T21:58:14.977Z,1.04
2018-02-20T22:00:42.679Z,1.02
2018-02-20T22:03:10.304Z,1.01
2018-02-20T22:05:53.263Z,0.97
2018-02-20T22:08:20.946Z,0.95
2018-02-20T22:10:48.596Z,0.92
2018-02-20T22:13:16.361Z,0.88
2018-02-20T22:15:44.056Z,0.85
2018-02-20T22:18:11.858Z,0.82
2018-02-20T22:20:39.833Z,0.76
2018-02-20T22:23:07.490Z,0.72
2018-02-20T22:25:35.174Z,0.70
2018-02-20T22:28:02.931Z,0.70
2018-02-20T22:30:31.056Z,0.65
2018-02-20T22:32:58.755Z,0.63
2018-02-20T22:35:26.400Z,0.69
2018-02-20T22:37:54.025Z,0.71
2018-02-20T22:40:21.733Z,0.65
2018-02-20T22:42:49.391Z,0.61
2018-02-20T22:45:17.118Z,0.58
2018-02-20T22:47:44.742Z,0.56
2018-02-20T22:50:12.526Z,0.56
2018-02-20T22:52:40.369Z,0.57
2018-02-20T22:55:07.998Z,0.58
2018-02-20T22:57:35.643Z,0.59
2018-02-20T23:00:03.430Z,0.59
2018-02-20T23:02:31.992Z,0.57
2018-02-20T23:04:59.680Z,0.60
2018-02-20T23:07:27.439Z,0.57
2018-02-20T23:09:55.108Z,0.55
2018-02-20T23:12:22.907Z,0.55
2018-02-20T23:14:50.602Z,0.52
2018-02-20T23:17:18.266Z,0.50
2018-02-20T23:19:45.938Z,0.47
2018-02-20T23:22:13.612Z,0.46
2018-02-20T23:24:41.281Z,0.43
2018-02-20T23:27:09.015Z,0.41
2018-02-20T23:29:36.629Z,0.40
2018-02-20T23:32:04.307Z,0.40
2018-02-20T23:34:32.000Z,0.36
2018-02-20T23:36:59.699Z,0.34
2018-02-20T23:39:27.404Z,0.31
2018-02-20T23:41:55.086Z,0.32
2018-02-20T23:44:22.720Z,0.33
2018-02-20T23:46:50.437Z,0.33
2018-02-20T23:49:18.139Z,0.32
2018-02-20T23:51:45.854Z,0.30
2018-02-20T23:54:21.168Z,0.28
2018-02-20T23:56:48.973Z,0.28
2018-02-20T23:59:16.682Z,0.28
